createdAt,value
2023-04-08T00:00:24.403Z,99891.66
2023-04-08T00:02:53.873Z,99895.59
2023-04-08T00:05:21.992Z,99898.94
2023-04-08T00:07:49.967Z,99898.28
2023-04-08T00:10:18.018Z,99882.72
2023-04-08T00:12:46.032Z,99896.25
2023-04-08T00:15:13.958Z,99902.94
2023-04-08T00:17:42.929Z,99899.97
2023-04-08T00:20:12.762Z,99901.56
2023-04-08T00:22:40.772Z,99901.72
2023-04-08T00:25:09.796Z,99905.72
2023-04-08T00:27:37.740Z,99908.47
2023-04-08T00:30:06.813Z,99912.66
2023-04-08T00:32:34.811Z,99905.50
2023-04-08T00:35:02.777Z,99899.84
2023-04-08T00:37:32.817Z,99901.69
2023-04-08T00:40:00.754Z,99905.84
2023-04-08T00:42:30.782Z,99909.44
2023-04-08T00:44:58.760Z,99891.91
2023-04-08T00:47:26.933Z,99902.66
2023-04-08T00:49:54.981Z,99910.59
2023-04-08T00:52:23.014Z,99912.84
2023-04-08T00:54:52.398Z,99910.44
2023-04-08T00:57:20.409Z,99915.38
2023-04-08T00:59:48.352Z,99919.06
2023-04-08T01:02:23.139Z,99921.31
2023-04-08T01:04:57.108Z,99920.84
2023-04-08T01:07:29.370Z,99922.97
2023-04-08T01:10:03.142Z,99930.91
2023-04-08T01:12:33.023Z,99930.31
2023-04-08T01:15:04.696Z,99936.50
2023-04-08T01:17:33.736Z,99916.88
2023-04-08T01:20:04.470Z,99934.84
2023-04-08T01:22:42.656Z,99924.81
2023-04-08T01:25:17.819Z,99932.56
2023-04-08T01:27:49.538Z,99930.63
2023-04-08T01:30:20.437Z,99931.09
2023-04-08T01:32:49.138Z,99933.16
2023-04-08T01:35:17.494Z,99936.16
2023-04-08T01:37:48.032Z,99938.78
2023-04-08T01:40:17.957Z,99933.00
2023-04-08T01:42:49.636Z,99924.09
2023-04-08T01:45:18.631Z,99933.59
2023-04-08T01:47:48.403Z,99930.34
2023-04-08T01:50:17.590Z,99939.31
2023-04-08T01:52:46.607Z,99935.53
2023-04-08T01:55:14.858Z,99931.06
2023-04-08T01:57:49.029Z,99947.50
2023-04-08T02:00:22.171Z,99953.19
2023-04-08T02:02:52.017Z,99957.19
2023-04-08T02:05:20.372Z,99960.81
2023-04-08T02:07:48.963Z,99955.97
2023-04-08T02:10:17.491Z,99956.28
2023-04-08T02:12:45.844Z,99960.19
2023-04-08T02:15:14.975Z,99956.19
2023-04-08T02:17:47.459Z,99951.16
2023-04-08T02:20:20.278Z,99962.06
2023-04-08T02:22:54.487Z,99966.50
2023-04-08T02:25:25.954Z,99962.88
2023-04-08T02:27:55.772Z,99962.59
2023-04-08T02:30:24.733Z,99963.34
2023-04-08T02:32:55.925Z,99970.19
2023-04-08T02:35:24.700Z,99957.13
2023-04-08T02:37:53.465Z,99960.00
2023-04-08T02:40:26.313Z,99968.34
2023-04-08T02:42:55.078Z,99961.56
2023-04-08T02:45:23.496Z,99938.44
2023-04-08T02:47:51.556Z,99965.75
2023-04-08T02:50:20.906Z,99965.56
2023-04-08T02:52:48.834Z,99962.47
2023-04-08T02:55:16.821Z,99965.00
2023-04-08T02:57:44.925Z,99967.97
2023-04-08T03:00:14.276Z,99972.41
2023-04-08T03:02:42.553Z,99971.88
2023-04-08T03:05:11.264Z,99973.81
2023-04-08T03:07:40.622Z,99982.94
2023-04-08T03:10:09.694Z,99984.16
2023-04-08T03:12:37.700Z,99991.47
2023-04-08T03:15:06.457Z,99973.06
2023-04-08T03:17:34.760Z,99987.75
2023-04-08T03:20:04.842Z,99983.78
2023-04-08T03:22:32.990Z,99981.41
2023-04-08T03:25:02.264Z,99981.81
2023-04-08T03:27:30.409Z,99990.78
2023-04-08T03:29:58.847Z,99988.88
2023-04-08T03:32:26.929Z,99982.06
2023-04-08T03:34:54.873Z,99984.34
2023-04-08T03:37:22.795Z,99983.97
2023-04-08T03:39:50.763Z,99991.38
2023-04-08T03:42:20.055Z,99995.31
2023-04-08T03:44:48.065Z,99992.06
2023-04-08T03:47:15.970Z,99992.72
2023-04-08T03:49:43.935Z,99987.31
2023-04-08T03:52:11.807Z,99992.22
2023-04-08T03:54:39.752Z,99990.75
2023-04-08T03:57:07.686Z,99995.53
2023-04-08T03:59:37.573Z,99999.31
2023-04-08T04:02:05.652Z,100003.44
2023-04-08T04:04:33.889Z,99994.94
2023-04-08T04:07:01.836Z,100013.00
2023-04-08T04:09:29.805Z,100005.44
2023-04-08T04:11:57.810Z,100005.13
2023-04-08T04:14:25.853Z,100005.69
2023-04-08T04:16:55.129Z,99980.06
2023-04-08T04:19:23.104Z,100011.13
2023-04-08T04:21:51.367Z,100011.38
2023-04-08T04:24:19.348Z,100013.47
2023-04-08T04:26:47.516Z,100014.00
2023-04-08T04:29:15.522Z,100025.72
2023-04-08T04:31:43.553Z,100023.81
2023-04-08T04:34:12.901Z,100013.00
2023-04-08T04:36:40.894Z,100009.63
2023-04-08T04:39:08.798Z,100014.19
2023-04-08T04:41:40.525Z,100010.53
2023-04-08T04:44:08.482Z,100015.47
2023-04-08T04:46:36.414Z,100010.53
2023-04-08T04:49:04.331Z,100019.03
2023-04-08T04:51:34.227Z,100022.78
2023-04-08T04:54:02.257Z,100021.13
2023-04-08T04:56:30.320Z,100015.91
2023-04-08T04:58:58.220Z,100023.03
2023-04-08T05:01:26.203Z,100014.06
2023-04-08T05:03:54.147Z,100021.22
2023-04-08T05:06:22.100Z,100026.38
2023-04-08T05:08:52.032Z,100023.09
2023-04-08T05:11:21.843Z,100029.84
2023-04-08T05:13:49.920Z,100026.31
2023-04-08T05:16:18.033Z,100030.47
2023-04-08T05:18:46.246Z,100033.94
2023-04-08T05:21:14.217Z,100039.91
2023-04-08T05:23:42.191Z,100041.88
2023-04-08T05:26:11.530Z,100042.53
2023-04-08T05:28:39.465Z,100041.94
2023-04-08T05:31:07.508Z,100054.19
2023-04-08T05:33:35.409Z,100052.53
2023-04-08T05:36:03.382Z,100045.13
2023-04-08T05:38:31.424Z,100055.38
2023-04-08T05:40:59.313Z,100052.19
2023-04-08T05:43:28.630Z,100050.47
2023-04-08T05:45:56.505Z,100050.22
2023-04-08T05:48:24.436Z,100050.91
2023-04-08T05:50:52.443Z,100027.63
2023-04-08T05:53:20.524Z,100055.13
2023-04-08T05:55:48.413Z,100060.00
2023-04-08T05:58:16.522Z,100032.88
2023-04-08T06:00:46.035Z,100058.06
2023-04-08T06:03:14.186Z,100046.63
2023-04-08T06:05:42.198Z,100053.31
2023-04-08T06:08:10.033Z,100056.00
2023-04-08T06:10:38.298Z,100053.88
2023-04-08T06:13:06.227Z,100056.03
2023-04-08T06:15:34.165Z,100057.47
2023-04-08T06:18:03.416Z,100058.81
2023-04-08T06:20:31.693Z,100058.84
2023-04-08T06:22:59.609Z,100059.72
2023-04-08T06:25:27.618Z,100066.69
2023-04-08T06:27:55.747Z,100065.72
2023-04-08T06:30:23.949Z,100063.50
2023-04-08T06:32:51.873Z,100051.06
2023-04-08T06:35:21.328Z,100061.66
2023-04-08T06:37:49.342Z,100053.78
2023-04-08T06:40:17.408Z,100053.28
2023-04-08T06:42:45.719Z,100059.03
2023-04-08T06:45:13.649Z,100056.53
2023-04-08T06:47:41.670Z,100059.03
2023-04-08T06:50:10.374Z,100057.06
2023-04-08T06:52:39.652Z,100057.41
2023-04-08T06:55:08.097Z,100060.06
2023-04-08T06:57:35.983Z,100058.75
2023-04-08T07:00:04.060Z,100051.75
2023-04-08T07:02:32.037Z,100053.00
2023-04-08T07:04:59.993Z,100056.66
2023-04-08T07:07:27.890Z,100053.06
2023-04-08T07:09:57.189Z,100052.91
2023-04-08T07:12:25.165Z,100047.75
2023-04-08T07:14:53.228Z,100054.72
2023-04-08T07:17:21.274Z,100068.28
2023-04-08T07:19:49.967Z,100063.41
2023-04-08T07:22:18.505Z,100062.88
2023-04-08T07:24:49.781Z,100065.97
2023-04-08T07:27:19.213Z,100061.31
2023-04-08T07:29:47.099Z,100067.09
2023-04-08T07:32:14.996Z,100055.84
2023-04-08T07:34:42.912Z,100058.13
2023-04-08T07:37:10.854Z,100058.03
2023-04-08T07:39:38.706Z,100059.63
2023-04-08T07:42:06.797Z,100065.34
2023-04-08T07:44:36.315Z,100057.06
2023-04-08T07:47:04.292Z,100057.44
2023-04-08T07:49:32.206Z,100060.88
2023-04-08T07:52:00.257Z,100059.88
2023-04-08T07:54:28.110Z,100055.00
2023-04-08T07:56:57.035Z,100053.81
2023-04-08T07:59:25.032Z,100059.81
2023-04-08T08:01:54.438Z,100054.88
2023-04-08T08:04:25.874Z,100064.22
2023-04-08T08:06:54.113Z,100068.97
2023-04-08T08:09:22.029Z,100062.75
2023-04-08T08:11:49.878Z,100063.19
2023-04-08T08:14:17.799Z,100066.88
2023-04-08T08:16:45.839Z,100068.06
2023-04-08T08:19:15.173Z,100072.28
2023-04-08T08:21:43.118Z,100069.66
2023-04-08T08:24:11.380Z,100066.84
2023-04-08T08:26:39.399Z,100058.16
2023-04-08T08:29:08.951Z,100059.91
2023-04-08T08:31:36.969Z,100058.88
2023-04-08T08:34:04.900Z,100058.59
2023-04-08T08:36:34.933Z,100051.75
2023-04-08T08:39:03.028Z,100026.94
2023-04-08T08:41:36.044Z,100048.63
2023-04-08T08:44:06.316Z,100059.78
2023-04-08T08:46:35.433Z,100054.63
2023-04-08T08:49:03.810Z,100051.56
2023-04-08T08:51:32.885Z,100047.75
2023-04-08T08:54:05.154Z,100046.84
2023-04-08T08:56:35.065Z,100034.97
2023-04-08T08:59:02.961Z,100043.91
2023-04-08T09:01:32.661Z,100030.47
2023-04-08T09:04:12.403Z,100049.28
2023-04-08T09:06:41.064Z,100049.69
2023-04-08T09:09:13.473Z,100041.13
2023-04-08T09:11:43.140Z,100043.56
2023-04-08T09:14:21.782Z,100042.94
2023-04-08T09:16:49.940Z,100043.81
2023-04-08T09:19:17.974Z,100033.44
2023-04-08T09:21:46.343Z,100046.56
2023-04-08T09:24:32.005Z,100042.66
2023-04-08T09:27:00.189Z,100039.38
2023-04-08T09:29:32.268Z,100036.44
2023-04-08T09:32:03.072Z,100019.19
2023-04-08T09:34:34.270Z,100038.69
2023-04-08T09:37:02.491Z,100028.78
2023-04-08T09:39:32.419Z,100040.75
2023-04-08T09:42:08.283Z,100042.13
2023-04-08T09:44:38.941Z,100023.75
2023-04-08T09:47:11.351Z,100033.59
2023-04-08T09:49:45.009Z,100045.91
2023-04-08T09:52:16.791Z,100036.41
2023-04-08T09:54:55.896Z,100040.84
2023-04-08T09:57:33.651Z,100042.34
2023-04-08T10:00:06.654Z,100047.44
2023-04-08T10:02:42.587Z,100049.81
2023-04-08T10:05:14.641Z,100041.28
2023-04-08T10:07:43.528Z,100045.25
2023-04-08T10:10:13.178Z,100044.09
2023-04-08T10:12:41.514Z,100025.88
2023-04-08T10:15:26.974Z,100028.00
2023-04-08T10:17:55.651Z,100022.59
2023-04-08T10:20:42.559Z,100014.97
2023-04-08T10:23:11.562Z,100025.84
2023-04-08T10:25:42.540Z,100018.94
2023-04-08T10:28:27.238Z,100020.88
2023-04-08T10:30:56.694Z,100022.50
2023-04-08T10:33:32.959Z,100002.59
2023-04-08T10:36:04.500Z,100002.06
2023-04-08T10:38:33.256Z,100014.66
2023-04-08T10:41:02.625Z,100015.25
2023-04-08T10:43:34.786Z,100003.81
2023-04-08T10:46:02.838Z,100005.72
2023-04-08T10:48:30.966Z,99999.00
2023-04-08T10:51:00.242Z,99996.78
2023-04-08T10:53:29.299Z,99981.41
2023-04-08T10:56:07.800Z,99899.88
2023-04-08T10:58:36.647Z,99985.69
2023-04-08T11:01:06.825Z,99981.19
2023-04-08T11:03:35.234Z,99978.66
2023-04-08T11:06:03.963Z,99977.41
2023-04-08T11:08:32.463Z,99968.03
2023-04-08T11:11:01.661Z,99963.28
2023-04-08T11:13:31.823Z,99949.28
2023-04-08T11:16:00.693Z,99968.66
2023-04-08T11:18:29.451Z,99963.88
2023-04-08T11:20:59.641Z,99959.53
2023-04-08T11:23:28.360Z,99957.41
2023-04-08T11:25:56.718Z,99959.28
2023-04-08T11:28:24.822Z,99954.09
2023-04-08T11:30:55.932Z,99936.16
2023-04-08T11:33:26.428Z,99943.91
2023-04-08T11:35:55.058Z,99950.94
2023-04-08T11:38:24.645Z,99942.50
2023-04-08T11:40:55.639Z,99938.88
2023-04-08T11:43:23.821Z,99930.34
2023-04-08T11:45:53.462Z,99926.41
2023-04-08T11:48:21.442Z,99921.19
2023-04-08T11:50:51.694Z,99926.41
2023-04-08T11:53:20.809Z,99914.22
2023-04-08T11:55:49.615Z,99912.44
2023-04-08T11:58:17.673Z,99918.81
2023-04-08T12:00:46.092Z,99917.03
2023-04-08T12:03:15.864Z,99905.41
2023-04-08T12:05:43.768Z,99902.63
2023-04-08T12:08:11.760Z,99907.31
2023-04-08T12:10:39.746Z,99906.41
2023-04-08T12:13:07.808Z,99905.66
2023-04-08T12:15:35.840Z,99901.50
2023-04-08T12:18:03.814Z,99886.84
2023-04-08T12:20:33.050Z,99897.94
2023-04-08T12:23:01.008Z,99888.91
2023-04-08T12:25:29.199Z,99884.03
2023-04-08T12:27:57.124Z,99883.16
2023-04-08T12:30:25.018Z,99878.50
2023-04-08T12:32:55.304Z,99878.59
2023-04-08T12:35:23.387Z,99875.75
2023-04-08T12:37:52.662Z,99870.03
2023-04-08T12:40:20.951Z,99867.63
2023-04-08T12:42:48.898Z,99872.56
2023-04-08T12:45:16.905Z,99873.59
2023-04-08T12:47:44.918Z,99869.75
2023-04-08T12:50:12.908Z,99870.66
2023-04-08T12:52:40.821Z,99856.19
2023-04-08T12:55:11.307Z,99849.06
2023-04-08T12:57:39.176Z,99863.78
2023-04-08T13:00:08.331Z,99864.97
2023-04-08T13:02:36.276Z,99861.78
2023-04-08T13:05:04.317Z,99852.03
2023-04-08T13:07:33.572Z,99845.28
2023-04-08T13:10:01.718Z,99854.91
2023-04-08T13:12:32.143Z,99845.22
2023-04-08T13:15:00.324Z,99837.09
2023-04-08T13:17:28.465Z,99842.53
2023-04-08T13:19:56.360Z,99808.34
2023-04-08T13:22:24.385Z,99836.66
2023-04-08T13:24:52.462Z,99833.16
2023-04-08T13:27:20.652Z,99833.44
2023-04-08T13:29:49.968Z,99828.94
2023-04-08T13:32:17.946Z,99822.06
2023-04-08T13:34:46.245Z,99816.44
2023-04-08T13:37:14.209Z,99818.13
2023-04-08T13:39:42.147Z,99820.81
2023-04-08T13:42:10.074Z,99821.38
2023-04-08T13:44:38.011Z,99815.63
2023-04-08T13:47:07.352Z,99812.97
2023-04-08T13:49:35.369Z,99807.59
2023-04-08T13:52:03.289Z,99803.09
2023-04-08T13:54:31.250Z,99812.88
2023-04-08T13:56:59.171Z,99810.19
2023-04-08T13:59:27.120Z,99802.25
2023-04-08T14:01:55.395Z,99799.78
2023-04-08T14:04:25.177Z,99804.53
2023-04-08T14:06:53.320Z,99805.47
2023-04-08T14:09:21.863Z,99810.06
2023-04-08T14:11:49.869Z,99804.41
2023-04-08T14:14:17.848Z,99809.06
2023-04-08T14:16:46.505Z,99800.09
2023-04-08T14:19:14.960Z,99804.97
2023-04-08T14:21:44.372Z,99813.34
2023-04-08T14:24:12.414Z,99811.66
2023-04-08T14:26:40.993Z,99799.25
2023-04-08T14:29:09.316Z,99813.16
2023-04-08T14:31:37.391Z,99812.75
2023-04-08T14:34:05.476Z,99808.75
2023-04-08T14:36:33.803Z,99810.41
2023-04-08T14:39:03.752Z,99813.72
2023-04-08T14:41:31.754Z,99806.00
2023-04-08T14:44:00.026Z,99797.38
2023-04-08T14:46:29.058Z,99798.69
2023-04-08T14:48:57.284Z,99808.22
2023-04-08T14:51:25.337Z,99799.25
2023-04-08T14:53:53.326Z,99721.78
2023-04-08T14:56:22.790Z,99800.78
2023-04-08T14:58:51.202Z,99800.50
2023-04-08T15:01:19.475Z,99796.59
2023-04-08T15:03:47.699Z,99801.59
2023-04-08T15:06:17.838Z,99792.03
2023-04-08T15:08:46.559Z,99792.59
2023-04-08T15:11:14.552Z,99795.78
2023-04-08T15:13:43.981Z,99802.97
2023-04-08T15:16:12.053Z,99800.75
2023-04-08T15:18:40.313Z,99802.13
2023-04-08T15:21:08.370Z,99809.19
2023-04-08T15:23:36.696Z,99804.75
2023-04-08T15:26:04.725Z,99802.53
2023-04-08T15:28:33.153Z,99805.69
2023-04-08T15:31:02.885Z,99807.09
2023-04-08T15:33:30.866Z,99797.00
2023-04-08T15:36:03.262Z,99780.50
2023-04-08T15:38:33.692Z,99800.47
2023-04-08T15:41:01.890Z,99806.84
2023-04-08T15:43:29.933Z,99808.22
2023-04-08T15:45:57.918Z,99803.09
2023-04-08T15:48:27.386Z,99804.63
2023-04-08T15:50:55.363Z,99809.47
2023-04-08T15:53:23.397Z,99805.59
2023-04-08T15:55:51.616Z,99804.50
2023-04-08T15:58:19.500Z,99807.25
2023-04-08T16:00:48.821Z,99800.75
2023-04-08T16:03:16.855Z,99796.34
2023-04-08T16:05:46.395Z,99796.88
2023-04-08T16:08:14.344Z,99802.97
2023-04-08T16:10:42.348Z,99783.16
2023-04-08T16:13:10.282Z,99806.25
2023-04-08T16:15:38.289Z,99806.94
2023-04-08T16:18:07.941Z,99797.69
2023-04-08T16:20:38.396Z,99804.72
2023-04-08T16:23:07.757Z,99797.13
2023-04-08T16:25:35.807Z,99796.31
2023-04-08T16:28:03.915Z,99790.75
2023-04-08T16:30:31.984Z,99791.28
2023-04-08T16:33:00.389Z,99794.06
2023-04-08T16:35:28.606Z,99796.56
2023-04-08T16:37:56.802Z,99803.75
2023-04-08T16:40:26.288Z,99798.94
2023-04-08T16:42:54.595Z,99802.06
2023-04-08T16:45:22.646Z,99782.72
2023-04-08T16:47:50.662Z,99809.28
2023-04-08T16:50:18.825Z,99818.50
2023-04-08T16:52:49.544Z,99812.72
2023-04-08T16:55:17.822Z,99819.38
2023-04-08T16:57:47.719Z,99815.66
2023-04-08T17:00:18.069Z,99822.69
2023-04-08T17:02:47.590Z,99834.97
2023-04-08T17:05:15.825Z,99829.97
2023-04-08T17:07:43.769Z,99832.28
2023-04-08T17:10:12.079Z,99797.34
2023-04-08T17:12:40.051Z,99835.31
2023-04-08T17:15:10.954Z,99843.97
2023-04-08T17:17:39.006Z,99843.03
2023-04-08T17:20:08.563Z,99837.81
2023-04-08T17:22:37.040Z,99846.25
2023-04-08T17:25:05.795Z,99849.72
2023-04-08T17:27:33.774Z,99824.44
2023-04-08T17:30:01.796Z,99860.16
2023-04-08T17:32:31.437Z,99859.81
2023-04-08T17:34:59.392Z,99862.56
2023-04-08T17:37:27.321Z,99868.59
2023-04-08T17:39:55.295Z,99874.97
2023-04-08T17:42:23.778Z,99875.28
2023-04-08T17:44:52.869Z,99875.47
2023-04-08T17:47:21.079Z,99880.31
2023-04-08T17:49:50.431Z,99890.78
2023-04-08T17:52:18.932Z,99888.53
2023-04-08T17:54:46.900Z,99887.97
2023-04-08T17:57:14.798Z,99894.88
2023-04-08T17:59:42.813Z,99904.78
2023-04-08T18:02:11.037Z,99903.81
2023-04-08T18:04:39.089Z,99905.25
2023-04-08T18:07:08.439Z,99915.59
2023-04-08T18:09:36.390Z,99914.78
2023-04-08T18:12:04.424Z,99920.81
2023-04-08T18:14:32.403Z,99924.63
2023-04-08T18:17:00.510Z,99927.47
2023-04-08T18:19:28.461Z,99929.63
2023-04-08T18:21:56.535Z,99933.41
2023-04-08T18:24:26.058Z,99931.06
2023-04-08T18:27:03.412Z,99924.81
2023-04-08T18:29:32.160Z,99938.28
2023-04-08T18:32:00.069Z,99936.63
2023-04-08T18:34:28.137Z,99942.66
2023-04-08T18:36:56.310Z,99936.63
2023-04-08T18:39:25.677Z,99947.06
2023-04-08T18:41:53.557Z,99951.94
2023-04-08T18:44:21.549Z,99960.41
2023-04-08T18:46:49.532Z,99955.16
2023-04-08T18:49:17.517Z,99963.34
2023-04-08T18:51:59.044Z,99961.94
2023-04-08T18:54:30.908Z,99965.94
2023-04-08T18:56:58.953Z,99964.75
2023-04-08T18:59:28.460Z,99970.72
2023-04-08T19:01:56.502Z,99974.81
2023-04-08T19:04:24.698Z,99983.41
2023-04-08T19:06:52.697Z,99984.84
2023-04-08T19:09:20.699Z,99981.97
2023-04-08T19:11:50.065Z,99982.84
2023-04-08T19:14:18.477Z,99995.38
2023-04-08T19:16:46.404Z,99990.38
2023-04-08T19:19:14.656Z,99987.63
2023-04-08T19:21:42.617Z,99988.97
2023-04-08T19:24:10.687Z,100002.97
2023-04-08T19:26:38.649Z,100003.03
2023-04-08T19:29:09.422Z,100000.84
2023-04-08T19:31:37.829Z,99999.47
2023-04-08T19:34:06.053Z,100003.69
2023-04-08T19:36:34.065Z,100001.91
2023-04-08T19:39:03.567Z,100002.75
2023-04-08T19:41:31.598Z,100003.56
2023-04-08T19:43:59.473Z,100006.81
2023-04-08T19:46:29.609Z,100010.78
2023-04-08T19:48:59.021Z,99999.81
2023-04-08T19:51:27.468Z,100008.38
2023-04-08T19:53:55.464Z,100008.91
2023-04-08T19:56:23.382Z,100007.03
2023-04-08T19:58:51.945Z,100015.16
2023-04-08T20:01:20.075Z,100014.28
2023-04-08T20:03:52.321Z,100013.06
2023-04-08T20:06:21.578Z,100012.94
2023-04-08T20:08:50.866Z,100017.91
2023-04-08T20:11:18.935Z,100024.06
2023-04-08T20:13:47.683Z,100024.72
2023-04-08T20:16:15.787Z,100002.19
2023-04-08T20:18:43.921Z,100026.31
2023-04-08T20:21:14.761Z,100015.88
2023-04-08T20:23:44.490Z,100023.19
2023-04-08T20:26:13.180Z,100032.69
2023-04-08T20:28:41.508Z,100027.47
2023-04-08T20:31:10.546Z,100030.00
2023-04-08T20:33:43.589Z,100029.88
2023-04-08T20:36:13.547Z,100038.06
2023-04-08T20:38:42.634Z,100035.66
2023-04-08T20:41:11.284Z,100036.19
2023-04-08T20:43:39.540Z,100027.31
2023-04-08T20:46:07.651Z,100041.09
2023-04-08T20:48:36.146Z,100029.06
2023-04-08T20:51:04.210Z,100036.19
2023-04-08T20:53:34.575Z,100038.78
2023-04-08T20:56:03.135Z,100031.47
2023-04-08T20:58:31.143Z,100034.50
2023-04-08T21:00:59.924Z,100037.81
2023-04-08T21:03:28.374Z,100037.84
2023-04-08T21:05:56.838Z,100011.69
2023-04-08T21:08:24.877Z,100037.28
2023-04-08T21:10:54.721Z,100032.78
2023-04-08T21:13:22.742Z,100020.56
2023-04-08T21:15:50.620Z,100031.84
2023-04-08T21:18:18.549Z,100036.53
2023-04-08T21:20:46.539Z,100036.56
2023-04-08T21:23:15.000Z,100042.22
2023-04-08T21:25:43.031Z,100039.34
2023-04-08T21:28:12.365Z,100042.25
2023-04-08T21:30:40.565Z,100030.84
2023-04-08T21:33:08.891Z,100044.22
2023-04-08T21:35:36.978Z,100027.00
2023-04-08T21:38:04.969Z,100043.81
2023-04-08T21:40:33.063Z,100038.34
2023-04-08T21:43:01.068Z,100042.66
2023-04-08T21:45:30.365Z,100035.72
2023-04-08T21:47:58.478Z,100032.56
2023-04-08T21:50:26.490Z,100025.25
2023-04-08T21:52:54.487Z,100031.66
2023-04-08T21:55:23.549Z,100027.34
2023-04-08T21:57:51.535Z,100036.34
2023-04-08T22:00:19.453Z,100033.50
2023-04-08T22:02:48.809Z,100036.13
2023-04-08T22:05:17.049Z,100039.66
2023-04-08T22:07:45.058Z,100038.41
2023-04-08T22:10:13.174Z,100046.75
2023-04-08T22:12:41.128Z,100044.88
2023-04-08T22:15:10.661Z,100036.00
2023-04-08T22:17:38.577Z,100042.78
2023-04-08T22:20:09.216Z,100042.47
2023-04-08T22:22:37.081Z,100040.06
2023-04-08T22:25:05.412Z,100039.22
2023-04-08T22:27:33.485Z,100046.75
2023-04-08T22:30:01.414Z,100044.66
2023-04-08T22:32:29.427Z,100047.25
2023-04-08T22:34:57.400Z,100054.56
2023-04-08T22:37:26.730Z,100054.19
2023-04-08T22:39:54.644Z,100064.63
2023-04-08T22:42:22.561Z,100054.84
2023-04-08T22:44:50.562Z,100057.06
2023-04-08T22:47:18.558Z,100057.38
2023-04-08T22:49:46.496Z,100055.88
2023-04-08T22:52:14.433Z,100057.94
2023-04-08T22:54:43.681Z,100049.78
2023-04-08T22:57:11.590Z,100052.50
2023-04-08T22:59:39.703Z,100056.38
2023-04-08T23:02:07.776Z,100046.34
2023-04-08T23:04:35.806Z,100056.19
2023-04-08T23:07:03.799Z,100060.91
2023-04-08T23:09:31.689Z,100061.69
2023-04-08T23:12:01.478Z,100059.63
2023-04-08T23:14:29.434Z,100057.28
2023-04-08T23:16:57.385Z,100044.28
2023-04-08T23:19:25.284Z,100053.13
2023-04-08T23:21:53.187Z,100057.88
2023-04-08T23:24:21.230Z,100053.72
2023-04-08T23:26:49.369Z,100047.78
2023-04-08T23:29:18.829Z,100050.69
2023-04-08T23:31:46.791Z,100053.03
2023-04-08T23:34:14.744Z,100050.81
2023-04-08T23:36:42.725Z,100046.72
2023-04-08T23:39:10.677Z,100027.22
2023-04-08T23:41:38.549Z,100051.34
2023-04-08T23:44:06.797Z,100055.47
2023-04-08T23:46:36.222Z,100053.75
2023-04-08T23:49:04.178Z,100050.03
2023-04-08T23:51:32.225Z,100047.06
2023-04-08T23:54:00.132Z,100050.31
2023-04-08T23:56:28.048Z,100053.78
2023-04-08T23:58:55.947Z,100051.91
